createdAt,value
2018-12-24T00:02:04.096Z,-4.08
2018-12-24T00:04:34.627Z,-4.25
2018-12-24T00:07:05.196Z,-4.12
2018-12-24T00:09:35.734Z,-4.18
2018-12-24T00:12:07.218Z,-4.19
2018-12-24T00:14:38.009Z,-4.12
2018-12-24T00:17:08.565Z,-4.17
2018-12-24T00:19:39.095Z,-4.18
2018-12-24T00:22:10.023Z,-4.13
2018-12-24T00:24:40.563Z,-4.09
2018-12-24T00:27:11.491Z,-4.04
2018-12-24T00:29:42.506Z,-4.01
2018-12-24T00:32:13.366Z,-4.04
2018-12-24T00:34:43.908Z,-4.11
2018-12-24T00:37:14.832Z,-4.09
2018-12-24T00:39:45.358Z,-4.08
2018-12-24T00:42:16.202Z,-4.08
2018-12-24T00:44:46.996Z,-4.04
2018-12-24T00:47:17.818Z,-4.16
2018-12-24T00:49:48.348Z,-4.18
2018-12-24T00:52:18.997Z,-4.18
2018-12-24T00:54:49.531Z,-4.10
2018-12-24T00:57:20.092Z,-4.12
2018-12-24T00:59:50.625Z,-4.17
2018-12-24T01:02:21.181Z,-4.14
2018-12-24T01:04:51.789Z,-4.20
2018-12-24T01:07:22.349Z,-4.20
2018-12-24T01:09:52.888Z,-4.15
2018-12-24T01:12:24.732Z,-4.06
2018-12-24T01:14:55.572Z,-4.01
2018-12-24T01:17:26.129Z,-4.03
2018-12-24T01:19:56.653Z,-4.08
2018-12-24T01:22:27.327Z,-4.06
2018-12-24T01:24:57.838Z,-4.07
2018-12-24T01:27:28.665Z,-4.02
2018-12-24T01:29:59.203Z,-4.12
2018-12-24T01:32:30.154Z,-4.18
2018-12-24T01:35:00.690Z,-4.14
2018-12-24T01:37:31.533Z,-4.07
2018-12-24T01:40:02.090Z,-3.98
2018-12-24T01:42:33.492Z,-4.03
2018-12-24T01:45:04.411Z,-4.03
2018-12-24T01:47:34.966Z,-4.09
2018-12-24T01:50:05.601Z,-4.21
2018-12-24T01:52:36.237Z,-4.15
2018-12-24T01:55:06.778Z,-4.09
2018-12-24T01:57:37.330Z,-4.05
2018-12-24T02:00:07.864Z,-4.03
2018-12-24T02:02:38.750Z,-4.07
2018-12-24T02:05:09.291Z,-4.10
2018-12-24T02:07:39.912Z,-4.07
2018-12-24T02:10:10.450Z,-3.98
2018-12-24T02:12:42.394Z,-3.88
2018-12-24T02:15:13.198Z,-4.00
2018-12-24T02:17:43.819Z,-4.10
2018-12-24T02:20:14.349Z,-4.03
2018-12-24T02:22:44.909Z,-3.96
2018-12-24T02:25:15.447Z,-3.95
2018-12-24T02:27:46.289Z,-4.05
2018-12-24T02:30:16.914Z,-4.03
2018-12-24T02:32:47.864Z,-4.07
2018-12-24T02:35:18.390Z,-4.15
2018-12-24T02:37:49.226Z,-4.00
2018-12-24T02:40:19.766Z,-3.91
2018-12-24T02:42:52.459Z,-4.10
2018-12-24T02:45:23.547Z,-4.03
2018-12-24T02:47:54.413Z,-4.99
2018-12-24T02:50:24.947Z,-4.00
2018-12-24T02:52:56.085Z,-3.90
2018-12-24T02:55:26.618Z,-3.97
2018-12-24T02:57:57.177Z,-3.93
2018-12-24T03:00:28.053Z,-3.91
2018-12-24T03:02:58.606Z,-3.94
2018-12-24T03:05:29.154Z,-4.04
2018-12-24T03:07:59.690Z,-4.02
2018-12-24T03:10:30.300Z,-4.06
2018-12-24T03:13:02.854Z,-4.02
2018-12-24T03:15:33.490Z,-3.97
2018-12-24T03:18:04.140Z,-4.00
2018-12-24T03:20:34.701Z,-4.02
2018-12-24T03:23:05.707Z,-3.99
2018-12-24T03:25:36.239Z,-3.97
2018-12-24T03:28:06.870Z,-3.95
2018-12-24T03:30:37.406Z,-3.99
2018-12-24T03:33:08.236Z,-3.92
2018-12-24T03:35:38.770Z,-3.97
2018-12-24T03:38:09.700Z,-3.94
2018-12-24T03:40:40.237Z,-4.01
2018-12-24T03:43:12.937Z,-3.92
2018-12-24T03:46:21.345Z,-3.83
2018-12-24T03:48:51.880Z,-3.81
2018-12-24T03:51:21.986Z,-3.79
2018-12-24T03:53:52.495Z,-3.75
2018-12-24T03:56:22.603Z,-3.78
2018-12-24T03:58:52.732Z,-3.89
2018-12-24T04:01:22.840Z,-3.87
2018-12-24T04:03:52.988Z,-3.86
2018-12-24T04:06:23.199Z,-3.87
2018-12-24T04:08:53.330Z,-3.93
2018-12-24T04:11:24.228Z,-3.83
2018-12-24T04:13:54.878Z,-3.83
2018-12-24T04:16:24.983Z,-3.72
2018-12-24T04:18:55.896Z,-3.65
2018-12-24T04:21:25.999Z,-3.57
2018-12-24T04:23:56.125Z,-3.59
2018-12-24T04:26:26.242Z,-3.54
2018-12-24T04:28:56.722Z,-3.48
2018-12-24T04:31:26.832Z,-3.55
2018-12-24T04:33:57.267Z,-3.61
2018-12-24T04:36:27.375Z,-3.61
2018-12-24T04:38:57.509Z,-3.58
2018-12-24T04:41:27.611Z,-3.61
2018-12-24T04:43:59.198Z,-3.53
2018-12-24T04:46:29.552Z,-3.56
2018-12-24T04:49:00.441Z,-3.57
2018-12-24T04:51:30.547Z,-3.67
2018-12-24T04:54:00.846Z,-3.76
2018-12-24T04:56:30.951Z,-3.76
2018-12-24T04:59:01.432Z,-3.67
2018-12-24T05:01:31.538Z,-3.69
2018-12-24T05:04:01.702Z,-3.65
2018-12-24T05:06:31.807Z,-3.67
2018-12-24T05:09:01.947Z,-3.69
2018-12-24T05:11:32.326Z,-3.67
2018-12-24T05:14:02.522Z,-3.64
2018-12-24T05:16:32.630Z,-3.62
2018-12-24T05:19:03.099Z,-3.60
2018-12-24T05:21:33.214Z,-3.64
2018-12-24T05:24:03.745Z,-3.69
2018-12-24T05:26:33.853Z,-3.68
2018-12-24T05:29:05.314Z,-3.69
2018-12-24T05:31:35.423Z,-3.65
2018-12-24T05:34:05.866Z,-3.69
2018-12-24T05:36:35.970Z,-3.68
2018-12-24T05:39:07.496Z,-3.71
2018-12-24T05:41:37.607Z,-3.73
2018-12-24T05:44:08.028Z,-3.80
2018-12-24T05:46:38.139Z,-3.73
2018-12-24T05:49:08.630Z,-3.75
2018-12-24T05:51:38.730Z,-3.72
2018-12-24T05:54:10.552Z,-3.68
2018-12-24T05:56:40.830Z,-3.70
2018-12-24T05:59:11.358Z,-3.79
2018-12-24T06:01:41.477Z,-3.81
2018-12-24T06:04:11.903Z,-3.88
2018-12-24T06:06:42.023Z,-3.82
2018-12-24T06:09:12.153Z,-3.83
2018-12-24T06:11:42.269Z,-3.90
2018-12-24T06:14:12.430Z,-3.90
2018-12-24T06:16:43.642Z,-3.88
2018-12-24T06:19:13.780Z,-3.92
2018-12-24T06:21:43.926Z,-3.92
2018-12-24T06:24:14.097Z,-3.90
2018-12-24T06:26:44.213Z,-3.86
2018-12-24T06:29:14.356Z,-3.90
2018-12-24T06:31:44.458Z,-3.85
2018-12-24T06:34:14.866Z,-3.89
2018-12-24T06:36:44.977Z,-3.91
2018-12-24T06:39:15.497Z,-3.92
2018-12-24T06:41:45.596Z,-3.99
2018-12-24T06:44:15.729Z,-4.01
2018-12-24T06:46:45.832Z,-4.03
2018-12-24T06:49:16.302Z,-4.06
2018-12-24T06:51:46.407Z,-4.07
2018-12-24T06:54:17.183Z,-4.09
2018-12-24T06:56:47.272Z,-4.13
2018-12-24T06:59:17.699Z,-4.15
2018-12-24T07:01:47.819Z,-4.19
2018-12-24T07:04:17.951Z,-4.20
2018-12-24T07:06:48.062Z,-4.26
2018-12-24T07:09:19.046Z,-4.32
2018-12-24T07:11:49.157Z,-4.32
2018-12-24T07:14:19.647Z,-4.37
2018-12-24T07:16:49.757Z,-4.43
2018-12-24T07:19:20.186Z,-4.52
2018-12-24T07:21:50.294Z,-4.57
2018-12-24T07:24:20.454Z,-4.57
2018-12-24T07:26:50.557Z,-4.59
2018-12-24T07:29:21.071Z,-4.60
2018-12-24T07:31:51.170Z,-4.61
2018-12-24T07:34:21.295Z,-4.61
2018-12-24T07:36:51.410Z,-4.63
2018-12-24T07:39:21.540Z,-4.66
2018-12-24T07:41:51.639Z,-4.67
2018-12-24T07:44:24.252Z,-4.74
2018-12-24T07:46:53.599Z,-4.75
2018-12-24T07:49:23.745Z,-4.72
2018-12-24T07:51:53.855Z,-4.78
2018-12-24T07:54:24.095Z,-4.80
2018-12-24T07:56:54.198Z,-4.73
2018-12-24T07:59:24.652Z,-4.73
2018-12-24T08:01:54.756Z,-4.74
2018-12-24T08:04:24.902Z,-4.72
2018-12-24T08:06:54.998Z,-4.72
2018-12-24T08:09:25.544Z,-4.74
2018-12-24T08:11:55.646Z,-4.70
2018-12-24T08:14:32.938Z,-4.66
2018-12-24T08:16:57.865Z,-4.62
2018-12-24T08:19:28.369Z,-4.64
2018-12-24T08:21:58.490Z,-4.63
2018-12-24T08:24:28.686Z,-4.60
2018-12-24T08:26:58.778Z,-4.61
2018-12-24T08:29:28.920Z,-4.55
2018-12-24T08:31:59.042Z,-4.57
2018-12-24T08:34:29.493Z,-4.52
2018-12-24T08:36:59.639Z,-4.53
2018-12-24T08:39:29.774Z,-4.47
2018-12-24T08:41:59.883Z,-4.48
2018-12-24T08:44:30.380Z,-4.44
2018-12-24T08:47:01.451Z,-4.44
2018-12-24T08:49:31.593Z,-4.42
2018-12-24T08:52:01.777Z,-4.37
2018-12-24T08:54:32.062Z,-4.34
2018-12-24T08:57:03.240Z,-4.34
2018-12-24T08:59:33.645Z,-4.27
2018-12-24T09:02:03.755Z,-4.24
2018-12-24T09:04:35.367Z,-4.21
2018-12-24T09:07:05.439Z,-4.16
2018-12-24T09:09:35.574Z,-4.26
2018-12-24T09:12:05.691Z,-4.22
2018-12-24T09:14:35.830Z,-4.19
2018-12-24T09:17:05.925Z,-4.13
2018-12-24T09:19:36.057Z,-4.08
2018-12-24T09:22:06.196Z,-4.12
2018-12-24T09:24:36.373Z,-4.02
2018-12-24T09:27:06.509Z,-4.00
2018-12-24T09:29:36.670Z,-3.95
2018-12-24T09:32:06.785Z,-3.86
2018-12-24T09:34:36.927Z,-3.77
2018-12-24T09:37:07.103Z,-3.77
2018-12-24T09:39:37.511Z,-3.70
2018-12-24T09:42:07.620Z,-3.68
2018-12-24T09:44:37.767Z,-3.60
2018-12-24T09:47:07.884Z,-3.56
2018-12-24T09:49:38.032Z,-3.54
2018-12-24T09:52:08.159Z,-3.49
2018-12-24T09:54:38.351Z,-3.49
2018-12-24T09:57:08.491Z,-3.51
2018-12-24T09:59:39.332Z,-3.46
2018-12-24T10:02:10.962Z,-3.45
2018-12-24T10:04:51.458Z,-3.43
2018-12-24T10:07:40.524Z,-3.56
2018-12-24T10:10:16.469Z,-3.53
2018-12-24T10:12:46.587Z,-3.47
2018-12-24T10:15:16.702Z,-3.39
2018-12-24T10:17:46.832Z,-3.44
2018-12-24T10:20:16.961Z,-3.50
2018-12-24T10:22:47.073Z,-3.48
2018-12-24T10:25:17.283Z,-3.47
2018-12-24T10:27:47.415Z,-3.48
2018-12-24T10:30:17.546Z,-3.37
2018-12-24T10:32:47.649Z,-3.32
2018-12-24T10:35:18.118Z,-3.33
2018-12-24T10:37:48.225Z,-3.30
2018-12-24T10:40:19.254Z,-3.23
2018-12-24T10:42:49.404Z,-3.17
2018-12-24T10:45:19.838Z,-3.12
2018-12-24T10:47:49.963Z,-3.17
2018-12-24T10:50:20.482Z,-3.15
2018-12-24T10:52:50.611Z,-3.09
2018-12-24T10:55:21.123Z,-3.08
2018-12-24T10:57:51.221Z,-3.17
2018-12-24T11:00:22.795Z,-3.18
2018-12-24T11:02:52.902Z,-3.07
2018-12-24T11:05:23.031Z,-3.08
2018-12-24T11:07:53.178Z,-3.06
2018-12-24T11:10:23.680Z,-3.04
2018-12-24T11:12:54.754Z,-3.00
2018-12-24T11:15:25.276Z,-2.94
2018-12-24T11:17:55.649Z,-2.96
2018-12-24T11:20:26.104Z,-2.93
2018-12-24T11:22:56.204Z,-2.93
2018-12-24T11:25:26.621Z,-2.87
2018-12-24T11:27:56.740Z,-2.86
2018-12-24T11:30:27.302Z,-2.87
2018-12-24T11:32:57.398Z,-2.84
2018-12-24T11:35:27.842Z,-2.81
2018-12-24T11:37:57.961Z,-2.83
2018-12-24T11:40:28.389Z,-2.82
2018-12-24T11:42:58.495Z,-2.77
2018-12-24T11:45:33.754Z,-2.77
2018-12-24T11:48:00.419Z,-2.76
2018-12-24T11:50:30.573Z,-2.81
2018-12-24T11:53:00.691Z,-2.83
2018-12-24T11:55:31.490Z,-2.83
2018-12-24T11:58:01.693Z,-2.87
2018-12-24T12:00:31.846Z,-2.86
2018-12-24T12:03:01.961Z,-2.75
2018-12-24T12:05:32.422Z,-2.75
2018-12-24T12:08:02.611Z,-2.70
2018-12-24T12:10:32.746Z,-2.70
2018-12-24T12:13:02.865Z,-2.73
2018-12-24T12:15:32.986Z,-2.66
2018-12-24T12:18:03.106Z,-2.67
2018-12-24T12:20:33.246Z,-2.70
2018-12-24T12:23:03.366Z,-2.69
2018-12-24T12:25:33.579Z,-2.66
2018-12-24T12:28:03.685Z,-2.65
2018-12-24T12:30:33.822Z,-2.61
2018-12-24T12:33:04.998Z,-2.55
2018-12-24T12:35:35.125Z,-2.56
2018-12-24T12:38:05.241Z,-2.48
2018-12-24T12:40:35.429Z,-2.46
2018-12-24T12:43:05.556Z,-2.48
2018-12-24T12:45:35.683Z,-2.52
2018-12-24T12:48:05.787Z,-2.53
2018-12-24T12:50:35.925Z,-2.57
2018-12-24T12:53:06.830Z,-2.53
2018-12-24T12:55:37.280Z,-2.51
2018-12-24T12:58:07.389Z,-2.47
2018-12-24T13:00:37.833Z,-2.41
2018-12-24T13:03:07.943Z,-2.42
2018-12-24T13:05:38.184Z,-2.38
2018-12-24T13:08:08.269Z,-2.43
2018-12-24T13:10:38.395Z,-2.47
2018-12-24T13:13:08.521Z,-2.56
2018-12-24T13:15:38.665Z,-2.59
2018-12-24T13:18:08.776Z,-2.58
2018-12-24T13:20:39.253Z,-2.56
2018-12-24T13:23:09.357Z,-2.60
2018-12-24T13:25:39.484Z,-2.60
2018-12-24T13:28:09.594Z,-2.61
2018-12-24T13:30:40.005Z,-2.66
2018-12-24T13:33:10.111Z,-2.66
2018-12-24T13:35:40.627Z,-2.64
2018-12-24T13:38:10.731Z,-2.65
2018-12-24T13:40:40.922Z,-2.63
2018-12-24T13:43:11.062Z,-2.66
2018-12-24T13:45:41.186Z,-2.64
2018-12-24T13:48:11.308Z,-2.68
2018-12-24T13:50:41.449Z,-2.75
2018-12-24T13:53:11.582Z,-2.73
2018-12-24T13:55:43.241Z,-2.69
2018-12-24T13:58:13.351Z,-2.69
2018-12-24T14:00:43.505Z,-2.68
2018-12-24T14:03:13.618Z,-2.73
2018-12-24T14:05:44.111Z,-2.65
2018-12-24T14:08:14.217Z,-2.64
2018-12-24T14:10:44.351Z,-2.57
2018-12-24T14:13:14.459Z,-2.57
2018-12-24T14:15:44.995Z,-2.55
2018-12-24T14:18:15.069Z,-2.54
2018-12-24T14:20:45.213Z,-2.51
2018-12-24T14:23:15.330Z,-2.59
2018-12-24T14:25:46.525Z,-2.58
2018-12-24T14:28:16.631Z,-2.56
2018-12-24T14:30:47.139Z,-2.59
2018-12-24T14:33:17.238Z,-2.60
2018-12-24T14:35:47.688Z,-2.65
2018-12-24T14:38:17.794Z,-2.66
2018-12-24T14:40:47.938Z,-2.67
2018-12-24T14:43:18.036Z,-2.70
2018-12-24T14:45:48.471Z,-2.69
2018-12-24T14:48:18.603Z,-2.63
2018-12-24T14:50:49.078Z,-2.60
2018-12-24T14:53:19.185Z,-2.62
2018-12-24T14:55:49.406Z,-2.59
2018-12-24T14:58:19.504Z,-2.60
2018-12-24T15:00:50.990Z,-2.62
2018-12-24T15:03:21.090Z,-2.70
2018-12-24T15:05:51.575Z,-2.66
2018-12-24T15:08:21.685Z,-2.63
2018-12-24T15:10:51.823Z,-2.65
2018-12-24T15:13:21.926Z,-2.68
2018-12-24T15:15:52.061Z,-2.86
2018-12-24T15:18:22.174Z,-2.83
2018-12-24T15:20:52.306Z,-2.88
2018-12-24T15:23:22.407Z,-2.89
2018-12-24T15:25:52.571Z,-2.96
2018-12-24T15:28:22.665Z,-2.95
2018-12-24T15:30:53.177Z,-2.95
2018-12-24T15:33:23.282Z,-2.99
2018-12-24T15:35:53.720Z,-2.93
2018-12-24T15:38:23.926Z,-2.95
2018-12-24T15:40:54.374Z,-2.93
2018-12-24T15:43:24.569Z,-2.92
2018-12-24T15:45:54.971Z,-2.89
2018-12-24T15:48:25.087Z,-2.90
2018-12-24T15:50:55.563Z,-2.90
2018-12-24T15:53:25.661Z,-2.88
2018-12-24T15:55:56.221Z,-2.84
2018-12-24T15:58:26.320Z,-2.81
2018-12-24T16:00:56.448Z,-2.72
2018-12-24T16:03:26.556Z,-2.68
2018-12-24T16:05:56.693Z,-2.64
2018-12-24T16:08:26.797Z,-2.61
2018-12-24T16:10:56.942Z,-2.59
2018-12-24T16:13:27.044Z,-2.60
2018-12-24T16:15:57.166Z,-2.60
2018-12-24T16:18:28.250Z,-2.58
2018-12-24T16:20:58.383Z,-2.55
2018-12-24T16:23:28.499Z,-2.54
2018-12-24T16:25:58.657Z,-2.59
2018-12-24T16:28:28.782Z,-2.59
2018-12-24T16:30:58.922Z,-2.60
2018-12-24T16:33:30.660Z,-2.60
2018-12-24T16:36:00.837Z,-2.57
2018-12-24T16:38:30.937Z,-2.58
2018-12-24T16:41:01.074Z,-2.56
2018-12-24T16:43:31.195Z,-2.56
2018-12-24T16:46:01.664Z,-2.63
2018-12-24T16:48:31.774Z,-2.57
2018-12-24T16:51:02.210Z,-2.50
2018-12-24T16:53:40.318Z,-2.56
2018-12-24T16:56:04.699Z,-2.55
2018-12-24T16:58:34.807Z,-2.58
2018-12-24T17:01:04.947Z,-2.63
2018-12-24T17:03:35.222Z,-2.70
2018-12-24T17:06:05.997Z,-2.75
2018-12-24T17:08:36.098Z,-2.84
2018-12-24T17:11:06.544Z,-2.85
2018-12-24T17:13:36.654Z,-2.83
2018-12-24T17:16:07.088Z,-2.81
2018-12-24T17:18:37.226Z,-2.81
2018-12-24T17:21:07.370Z,-2.82
2018-12-24T17:23:37.485Z,-2.78
2018-12-24T17:26:07.610Z,-2.76
2018-12-24T17:28:37.709Z,-2.73
2018-12-24T17:31:08.220Z,-2.68
2018-12-24T17:33:38.352Z,-2.66
2018-12-24T17:36:08.866Z,-2.62
2018-12-24T17:38:38.991Z,-2.55
2018-12-24T17:41:09.609Z,-2.50
2018-12-24T17:43:39.722Z,-2.45
2018-12-24T17:46:09.843Z,-2.44
2018-12-24T17:48:39.971Z,-2.38
2018-12-24T17:51:10.394Z,-2.30
2018-12-24T17:53:40.513Z,-2.24
2018-12-24T17:56:11.047Z,-2.21
2018-12-24T17:58:41.154Z,-2.17
2018-12-24T18:01:11.281Z,-2.11
2018-12-24T18:03:41.389Z,-2.09
2018-12-24T18:06:11.782Z,-2.09
2018-12-24T18:08:41.890Z,-2.09
2018-12-24T18:11:12.053Z,-2.04
2018-12-24T18:13:42.177Z,-2.00
2018-12-24T18:16:12.318Z,-1.96
2018-12-24T18:18:42.440Z,-1.93
2018-12-24T18:21:12.678Z,-1.91
2018-12-24T18:23:42.787Z,-1.88
2018-12-24T18:26:12.916Z,-1.81
2018-12-24T18:28:43.107Z,-1.78
2018-12-24T18:31:19.945Z,-1.82
2018-12-24T18:33:45.053Z,-1.85
2018-12-24T18:36:15.722Z,-1.87
2018-12-24T18:38:46.802Z,-1.93
2018-12-24T18:41:17.256Z,-1.93
2018-12-24T18:43:47.362Z,-1.90
2018-12-24T18:46:17.660Z,-1.96
2018-12-24T18:48:47.765Z,-1.91
2018-12-24T18:51:18.271Z,-1.96
2018-12-24T18:53:48.369Z,-1.92
2018-12-24T18:56:18.863Z,-1.95
2018-12-24T18:58:48.983Z,-2.00
2018-12-24T19:01:19.103Z,-1.92
2018-12-24T19:03:49.253Z,-1.92
2018-12-24T19:06:19.405Z,-1.93
2018-12-24T19:08:49.507Z,-1.99
2018-12-24T19:11:20.552Z,-1.97
2018-12-24T19:13:50.656Z,-1.99
2018-12-24T19:16:21.105Z,-2.01
2018-12-24T19:18:51.215Z,-1.95
2018-12-24T19:21:21.342Z,-1.87
2018-12-24T19:23:52.429Z,-1.86
2018-12-24T19:26:22.591Z,-1.74
2018-12-24T19:28:52.697Z,-1.71
2018-12-24T19:31:22.823Z,-1.63
2018-12-24T19:33:53.014Z,-1.58
2018-12-24T19:36:23.235Z,-1.55
2018-12-24T19:38:53.342Z,-1.57
2018-12-24T19:41:24.183Z,-1.62
2018-12-24T19:43:54.279Z,-1.58
2018-12-24T19:46:24.446Z,-1.57
2018-12-24T19:48:54.545Z,-1.58
2018-12-24T19:51:24.686Z,-1.58
2018-12-24T19:53:54.797Z,-1.53
2018-12-24T19:56:25.035Z,-1.49
2018-12-24T19:58:55.155Z,-1.49
2018-12-24T20:01:25.315Z,-1.48
2018-12-24T20:03:55.425Z,-1.47
2018-12-24T20:06:25.598Z,-1.41
2018-12-24T20:08:55.774Z,-1.44
2018-12-24T20:11:26.410Z,-1.46
2018-12-24T20:13:56.534Z,-1.47
2018-12-24T20:16:26.678Z,-1.54
2018-12-24T20:18:56.781Z,-1.64
2018-12-24T20:21:26.913Z,-1.64
2018-12-24T20:23:57.025Z,-1.63
2018-12-24T20:26:27.860Z,-1.62
2018-12-24T20:28:57.981Z,-1.68
2018-12-24T20:31:28.465Z,-1.68
2018-12-24T20:33:58.578Z,-1.72
2018-12-24T20:36:29.012Z,-1.70
2018-12-24T20:38:59.335Z,-1.72
2018-12-24T20:41:29.643Z,-1.70
2018-12-24T20:43:59.761Z,-1.69
2018-12-24T20:46:29.912Z,-1.71
2018-12-24T20:49:00.053Z,-1.74
2018-12-24T20:51:30.253Z,-1.80
2018-12-24T20:54:00.372Z,-1.84
2018-12-24T20:56:30.620Z,-1.82
2018-12-24T20:59:00.731Z,-1.72
2018-12-24T21:01:31.288Z,-1.71
2018-12-24T21:04:01.371Z,-1.65
2018-12-24T21:06:31.517Z,-1.63
2018-12-24T21:09:01.616Z,-1.63
2018-12-24T21:11:32.950Z,-1.54
2018-12-24T21:14:03.054Z,-1.47
2018-12-24T21:16:33.199Z,-1.47
2018-12-24T21:19:03.315Z,-1.52
2018-12-24T21:21:33.455Z,-1.73
2018-12-24T21:24:03.563Z,-1.58
2018-12-24T21:26:33.700Z,-1.54
2018-12-24T21:29:03.883Z,-1.54
2018-12-24T21:31:34.010Z,-1.48
2018-12-24T21:34:04.136Z,-1.41
2018-12-24T21:36:34.270Z,-1.38
2018-12-24T21:39:06.201Z,-1.36
2018-12-24T21:41:36.335Z,-1.36
2018-12-24T21:44:06.459Z,-1.28
2018-12-24T21:46:36.599Z,-1.29
2018-12-24T21:49:06.706Z,-1.24
2018-12-24T21:51:36.915Z,-1.21
2018-12-24T21:54:07.096Z,-1.21
2018-12-24T21:56:37.371Z,-1.22
2018-12-24T21:59:07.475Z,-1.19
2018-12-24T22:01:37.981Z,-1.19
2018-12-24T22:04:08.103Z,-1.22
2018-12-24T22:06:38.237Z,-1.15
2018-12-24T22:09:09.804Z,-1.20
2018-12-24T22:11:39.962Z,-1.19
2018-12-24T22:14:10.062Z,-1.22
2018-12-24T22:16:40.465Z,-1.18
2018-12-24T22:19:10.582Z,-1.21
2018-12-24T22:21:40.724Z,-1.19
2018-12-24T22:24:10.909Z,-1.20
2018-12-24T22:26:41.048Z,-1.19
2018-12-24T22:29:11.156Z,-1.09
2018-12-24T22:31:41.363Z,-1.02
2018-12-24T22:34:11.491Z,-1.00
2018-12-24T22:36:41.627Z,-0.89
2018-12-24T22:39:11.758Z,-0.89
2018-12-24T22:41:41.988Z,-0.74
2018-12-24T22:44:12.081Z,-0.63
2018-12-24T22:46:42.580Z,-0.67
2018-12-24T22:49:12.690Z,-0.73
2018-12-24T22:51:43.102Z,-0.69
2018-12-24T22:54:13.227Z,-0.55
2018-12-24T22:56:43.982Z,-0.44
2018-12-24T22:59:14.088Z,-0.44
2018-12-24T23:01:44.523Z,-0.41
2018-12-24T23:04:14.629Z,-0.38
2018-12-24T23:06:44.758Z,-0.29
2018-12-24T23:09:14.876Z,-0.32
2018-12-24T23:11:45.013Z,-0.21
2018-12-24T23:14:15.446Z,-0.16
2018-12-24T23:16:45.581Z,-0.15
2018-12-24T23:19:15.678Z,-0.09
2018-12-24T23:21:45.807Z,-0.09
2018-12-24T23:24:15.923Z,-0.20
2018-12-24T23:26:46.079Z,-0.18
2018-12-24T23:29:16.359Z,-0.18
2018-12-24T23:31:46.495Z,-0.70
2018-12-24T23:34:16.609Z,-0.25
2018-12-24T23:36:46.749Z,-0.27
2018-12-24T23:39:16.867Z,-0.43
2018-12-24T23:41:47.009Z,-0.41
2018-12-24T23:44:17.116Z,-0.52
2018-12-24T23:46:47.585Z,-0.53
2018-12-24T23:49:17.690Z,-0.53
2018-12-24T23:51:48.130Z,-0.71
2018-12-24T23:54:18.244Z,-0.70
2018-12-24T23:56:48.551Z,-0.69
2018-12-24T23:59:18.658Z,-0.61
